Time;durP1;ratioP1;P1;durP2;ratioP2;P2;SDS_P1;SDS_P2;PMS_P1;PMS_P2;Temp;Humidity;BMP_temperature;BMP_pressure;BME280_temperature;BME280_humidity;BME280_pressure;Samples;Min_cycle;Max_cycle;Signal;HPM_P1;HPM_P2
2021/06/05 00:12:46;;;;;;;4.18;3.80;;;14.20;99.90;;;;;;4629904;30;20858;-85
2021/06/05 00:51:52;;;;;;;4.70;3.83;;;14.20;99.90;;;;;;537563;24;20345;-84
2021/06/05 00:55:24;;;;;;;;;;;;;;;;;;;;;
2021/06/05 01:23:50;;;;;;;4.72;4.32;;;13.90;99.90;;;;;;4663164;30;20056;-86
2021/06/05 01:26:28;;;;;;;4.82;4.03;;;13.90;99.90;;;;;;4651602;30;20059;-82
2021/06/05 01:29:14;;;;;;;6.25;4.15;;;14.10;99.90;;;;;;4682635;30;20733;-82
2021/06/05 01:53:23;;;;;;;;;;;;;;;;;;;;;
2021/06/05 01:57:58;;;;;;;;;;;;;;;;;;;;;
2021/06/05 02:31:42;;;;;;;4.95;4.55;;;14.50;99.90;;;;;;4633105;30;20069;-83
2021/06/05 02:34:34;;;;;;;4.35;3.97;;;14.40;99.90;;;;;;4664231;30;20049;-83
2021/06/05 02:37:19;;;;;;;6.30;4.45;;;14.50;99.90;;;;;;4702977;30;20045;-83
2021/06/05 02:40:17;;;;;;;5.00;3.47;;;14.50;99.90;;;;;;4690408;30;20068;-83
2021/06/05 02:43:28;;;;;;;2.83;2.63;;;14.60;99.90;;;;;;4688438;30;20057;-83
2021/06/05 02:47:25;;;;;;;4.55;4.15;;;14.80;99.90;;;;;;4691508;30;20520;-83
2021/06/05 02:50:30;;;;;;;4.80;4.40;;;14.90;99.90;;;;;;4710290;30;20080;-83
2021/06/05 02:53:25;;;;;;;6.03;4.07;;;15.10;99.90;;;;;;4700500;30;20526;-84
2021/06/05 02:56:50;;;;;;;3.83;3.35;;;15.20;99.90;;;;;;4686582;30;20064;-83
2021/06/05 02:59:25;;;;;;;4.63;4.22;;;15.30;99.90;;;;;;4705025;30;20060;-84
2021/06/05 03:01:55;;;;;;;5.82;4.38;;;15.40;99.90;;;;;;4710541;30;20041;-83
2021/06/05 03:04:30;;;;;;;5.40;4.90;;;15.40;99.90;;;;;;4702232;30;20053;-84
2021/06/05 03:07:01;;;;;;;5.18;4.63;;;15.40;99.90;;;;;;4702354;30;20608;-83
2021/06/05 03:09:30;;;;;;;6.47;5.80;;;15.40;99.90;;;;;;4716220;30;20049;-82
2021/06/05 03:12:00;;;;;;;5.65;5.07;;;15.40;99.90;;;;;;4702275;30;20056;-84
2021/06/05 03:14:33;;;;;;;7.30;6.07;;;15.40;99.90;;;;;;4688089;30;20053;-82
2021/06/05 03:17:31;;;;;;;7.93;6.28;;;15.30;99.90;;;;;;4701620;30;20392;-83
2021/06/05 03:20:16;;;;;;;7.07;6.38;;;15.20;99.90;;;;;;4689118;30;20060;-84
2021/06/05 03:23:35;;;;;;;5.63;5.13;;;15.20;99.90;;;;;;4690254;30;20419;-83
2021/06/05 03:27:00;;;;;;;8.57;6.15;;;15.10;99.90;;;;;;4674633;30;20573;-84
2021/06/05 03:30:36;;;;;;;5.75;5.25;;;15.10;99.90;;;;;;4707685;30;20431;-83
2021/06/05 03:33:59;;;;;;;16.80;6.60;;;15.00;99.90;;;;;;4669044;30;20046;-83
2021/06/05 03:37:49;;;;;;;8.82;4.78;;;14.90;99.90;;;;;;4677741;30;20064;-84
2021/06/05 03:40:29;;;;;;;7.80;6.03;;;14.90;99.90;;;;;;4695078;30;20069;-83
2021/06/05 03:43:53;;;;;;;6.53;5.93;;;14.90;99.90;;;;;;4696733;30;20057;-82
2021/06/05 03:46:29;;;;;;;;;;;14.80;99.90;;;;;;4690460;30;20048;-84
2021/06/05 03:49:20;;;;;;;10.27;7.13;;;14.80;99.90;;;;;;4714627;30;19930;-83
2021/06/05 03:52:18;;;;;;;10.68;5.90;;;14.80;99.90;;;;;;4711745;30;20057;-80
2021/06/05 03:55:42;;;;;;;6.35;5.75;;;14.80;99.90;;;;;;4732357;30;20389;-84
2021/06/05 03:59:00;;;;;;;6.15;4.80;;;14.80;99.90;;;;;;4748549;30;20055;-81
2021/06/05 04:01:35;;;;;;;8.73;7.05;;;14.80;99.90;;;;;;4734094;30;20052;-82
2021/06/05 04:04:06;;;;;;;10.68;6.53;;;14.80;99.90;;;;;;4718866;30;20056;-82
2021/06/05 04:06:36;;;;;;;6.13;5.40;;;14.80;99.90;;;;;;4733940;30;20056;-83
2021/06/05 04:09:13;;;;;;;7.28;6.65;;;14.80;99.90;;;;;;4751460;30;20047;-81
2021/06/05 04:11:42;;;;;;;7.93;5.38;;;14.80;99.90;;;;;;4734172;30;20056;-83
2021/06/05 04:14:21;;;;;;;8.70;5.47;;;14.80;99.90;;;;;;4718658;30;20057;-82
2021/06/05 04:17:02;;;;;;;8.00;6.47;;;14.80;99.90;;;;;;4719729;30;20049;-83
2021/06/05 04:20:00;;;;;;;8.73;5.35;;;14.70;99.90;;;;;;4721236;30;20525;-84
2021/06/05 04:22:29;;;;;;;13.23;8.75;;;14.70;99.90;;;;;;4739033;30;20060;-83
2021/06/05 04:25:19;;;;;;;7.22;6.55;;;14.70;99.90;;;;;;4736577;30;20063;-83
2021/06/05 04:28:16;;;;;;;8.93;5.53;;;14.70;99.90;;;;;;4733965;30;20075;-84
2021/06/05 04:30:56;;;;;;;7.18;6.00;;;14.70;99.90;;;;;;4722971;30;20048;-83
2021/06/05 04:33:29;;;;;;;10.23;6.95;;;14.70;99.90;;;;;;4717952;30;20052;-82
2021/06/05 04:36:16;;;;;;;10.45;6.07;;;14.70;99.90;;;;;;4728896;30;20064;-82
2021/06/05 04:38:56;;;;;;;24.73;8.07;;;14.70;99.90;;;;;;4725215;30;20057;-82
2021/06/05 04:41:38;;;;;;;7.68;6.22;;;14.70;99.90;;;;;;4718779;30;20052;-84
2021/06/05 04:44:33;;;;;;;8.25;4.95;;;14.60;99.90;;;;;;4733726;30;20064;-83
2021/06/05 04:48:15;;;;;;;7.47;5.25;;;14.70;99.90;;;;;;4701445;30;20411;-83
2021/06/05 04:51:21;;;;;;;8.55;5.28;;;14.60;99.90;;;;;;4706265;30;20052;-82
2021/06/05 04:53:56;;;;;;;6.53;5.93;;;14.60;99.90;;;;;;4738794;30;20059;-82
2021/06/05 04:56:35;;;;;;;;;;;14.70;99.90;;;;;;4737033;30;20067;-83
2021/06/05 04:59:14;;;;;;;6.57;5.22;;;14.70;99.90;;;;;;4721451;30;19934;-84
2021/06/05 05:01:45;;;;;;;7.15;5.35;;;14.80;99.90;;;;;;4708482;30;20055;-84
2021/06/05 05:04:46;;;;;;;5.28;4.78;;;14.80;99.90;;;;;;4732855;30;20075;-81
2021/06/05 05:07:23;;;;;;;6.03;4.80;;;15.00;99.90;;;;;;4770416;30;20064;-82
2021/06/05 05:09:55;;;;;;;5.45;4.80;;;15.00;99.90;;;;;;4744337;30;20063;-84
2021/06/05 05:12:23;;;;;;;5.80;4.45;;;15.10;99.90;;;;;;4753963;30;20063;-83
2021/06/05 05:14:54;;;;;;;9.68;6.18;;;15.10;99.90;;;;;;4753502;30;20055;-83
2021/06/05 05:17:23;;;;;;;7.15;5.35;;;15.10;99.90;;;;;;4753904;30;20044;-85
2021/06/05 05:19:50;;;;;;;5.22;4.70;;;15.10;99.90;;;;;;4736319;30;20562;-87
2021/06/05 05:22:18;;;;;;;5.22;3.70;;;15.10;99.90;;;;;;4736502;30;20040;-82
2021/06/05 05:24:46;;;;;;;7.07;5.60;;;15.00;99.90;;;;;;4706859;30;20063;-84
2021/06/05 05:27:14;;;;;;;12.40;4.85;;;15.10;99.90;;;;;;4721880;30;20071;-83
2021/06/05 05:29:58;;;;;;;8.55;4.68;;;15.10;99.90;;;;;;4712369;30;20056;-82
2021/06/05 05:32:27;;;;;;;6.22;4.82;;;15.10;99.90;;;;;;4752106;30;20067;-82
2021/06/05 05:35:33;;;;;;;5.55;4.10;;;15.20;99.90;;;;;;4707423;30;20048;-82
2021/06/05 05:38:16;;;;;;;4.80;4.40;;;15.20;99.90;;;;;;4722187;30;20056;-81
2021/06/05 05:41:23;;;;;;;4.47;4.07;;;15.40;99.90;;;;;;4733487;30;20052;-82
2021/06/05 05:43:58;;;;;;;4.97;4.50;;;15.60;99.90;;;;;;4735707;30;20514;-83
2021/06/05 05:47:08;;;;;;;3.53;3.22;;;15.80;99.90;;;;;;4737591;30;20048;-84
2021/06/05 05:50:21;;;;;;;3.13;2.85;;;16.10;99.90;;;;;;4676266;30;20057;-83
2021/06/05 05:53:55;;;;;;;2.67;2.47;;;16.10;99.90;;;;;;4739027;30;20070;-83
2021/06/05 05:57:03;;;;;;;3.38;2.63;;;16.90;99.90;;;;;;4742878;30;20487;-85
2021/06/05 05:59:34;;;;;;;5.57;2.85;;;17.00;99.90;;;;;;4713542;30;20414;-82
2021/06/05 06:02:20;;;;;;;4.47;2.38;;;17.00;99.90;;;;;;4736591;30;20048;-81
2021/06/05 06:04:48;;;;;;;2.25;2.05;;;17.00;99.90;;;;;;4722823;30;20067;-81
2021/06/05 06:07:18;;;;;;;2.33;2.15;;;17.40;99.90;;;;;;4720954;30;20396;-82
2021/06/05 06:09:46;;;;;;;11.75;3.47;;;17.60;99.90;;;;;;4735035;30;20048;-81
2021/06/05 06:12:20;;;;;;;3.78;2.35;;;17.70;99.90;;;;;;4733598;30;20067;-81
2021/06/05 06:14:52;;;;;;;2.60;2.40;;;17.80;99.90;;;;;;4751922;30;20048;-83
2021/06/05 06:17:20;;;;;;;3.58;2.17;;;17.60;99.90;;;;;;4735085;30;20483;-82
2021/06/05 06:19:48;;;;;;;2.33;1.77;;;17.40;99.90;;;;;;4754548;30;20070;-86
2021/06/05 06:22:16;;;;;;;2.92;2.40;;;17.40;99.90;;;;;;4768736;30;20048;-82
2021/06/05 06:24:44;;;;;;;4.05;2.13;;;17.50;99.90;;;;;;4768386;30;20059;-86
2021/06/05 06:27:12;;;;;;;6.03;2.13;;;17.60;99.90;;;;;;4769186;30;20059;-85
2021/06/05 06:29:40;;;;;;;2.05;1.85;;;17.80;99.90;;;;;;4751496;30;20060;-88
2021/06/05 06:32:10;;;;;;;1.90;1.58;;;17.80;99.90;;;;;;4734945;30;20068;-85
2021/06/05 06:34:38;;;;;;;1.65;1.55;;;17.80;99.90;;;;;;4733526;30;20059;-85
2021/06/05 06:37:07;;;;;;;1.88;1.77;;;17.90;99.90;;;;;;4720293;30;20052;-84
2021/06/05 06:39:40;;;;;;;2.10;1.92;;;18.00;99.90;;;;;;4750059;30;20056;-84
2021/06/05 06:42:12;;;;;;;1.98;1.83;;;18.10;99.90;;;;;;4720269;30;20051;-81
2021/06/05 06:44:40;;;;;;;2.88;2.17;;;18.30;99.90;;;;;;4750437;30;20083;-83
2021/06/05 06:47:09;;;;;;;3.90;2.63;;;18.50;99.90;;;;;;4751127;30;20052;-82
2021/06/05 06:49:37;;;;;;;3.08;1.48;;;18.20;99.90;;;;;;4736352;30;20129;-84
2021/06/05 06:52:05;;;;;;;4.93;1.50;;;18.40;99.90;;;;;;4768696;30;20062;-83
2021/06/05 06:54:33;;;;;;;1.85;1.60;;;18.70;99.90;;;;;;4767608;30;20099;-82
2021/06/05 06:57:01;;;;;;;1.48;1.38;;;18.90;99.90;;;;;;4736861;30;20506;-85
2021/06/05 06:59:33;;;;;;;;;;;19.00;99.90;;;;;;4738413;30;20052;-82
2021/06/05 07:02:02;;;;;;;3.03;1.55;;;19.00;99.90;;;;;;4768089;30;19937;-82
2021/06/05 07:04:31;;;;;;;1.70;0.82;;;19.20;99.90;;;;;;4751319;30;20056;-83
2021/06/05 07:07:00;;;;;;;1.40;1.30;;;19.20;99.90;;;;;;4714566;30;20490;-88
2021/06/05 07:09:29;;;;;;;1.55;1.15;;;19.60;99.90;;;;;;4768229;30;20055;-86
2021/06/05 07:11:57;;;;;;;1.30;1.20;;;20.10;99.00;;;;;;4752472;30;20056;-86
2021/06/05 07:14:25;;;;;;;2.03;1.45;;;20.80;98.30;;;;;;4737217;30;20047;-86
2021/06/05 07:16:53;;;;;;;3.22;1.65;;;21.50;97.40;;;;;;4767573;30;20043;-87
2021/06/05 07:19:25;;;;;;;1.98;1.65;;;22.00;95.40;;;;;;4767353;30;20055;-87
2021/06/05 07:21:53;;;;;;;1.65;1.38;;;22.50;95.10;;;;;;4735979;30;20051;-88
2021/06/05 07:24:21;;;;;;;1.83;1.73;;;23.00;93.90;;;;;;4767252;30;20418;-86
2021/06/05 07:26:49;;;;;;;3.00;1.25;;;23.20;94.20;;;;;;4750060;30;20047;-89
2021/06/05 07:29:20;;;;;;;11.15;2.53;;;22.70;93.20;;;;;;4736643;30;20557;-90
2021/06/05 07:32:01;;;;;;;2.27;1.20;;;22.50;93.10;;;;;;4738364;30;20059;-91
2021/06/05 07:34:34;;;;;;;1.73;1.42;;;23.00;93.40;;;;;;4753626;30;20306;-83
2021/06/05 07:37:11;;;;;;;1.40;1.20;;;23.30;91.90;;;;;;4763597;30;20063;-82
2021/06/05 07:40:19;;;;;;;1.48;1.27;;;23.00;92.20;;;;;;4764159;29;20486;-83
2021/06/05 07:43:19;;;;;;;1.45;1.35;;;22.80;92.40;;;;;;4727115;30;20051;-84
2021/06/05 07:46:09;;;;;;;1.75;1.65;;;23.10;91.70;;;;;;4764408;30;20068;-91
2021/06/05 07:48:45;;;;;;;1.95;1.40;;;22.70;91.80;;;;;;4749294;30;20104;-93
2021/06/05 07:51:24;;;;;;;2.97;1.60;;;21.80;95.10;;;;;;4745633;30;20372;-81
2021/06/05 07:53:53;;;;;;;2.70;2.05;;;21.50;96.70;;;;;;4737991;30;20052;-82
2021/06/05 07:56:20;;;;;;;3.35;1.08;;;21.40;95.40;;;;;;4731470;30;20105;-82
2021/06/05 07:58:48;;;;;;;2.25;1.58;;;21.40;96.30;;;;;;4715709;30;20052;-82
2021/06/05 08:01:16;;;;;;;2.42;1.55;;;21.50;96.00;;;;;;4730974;30;20055;-82
2021/06/05 08:03:47;;;;;;;3.38;1.65;;;21.70;95.30;;;;;;4732734;30;20549;-91
2021/06/05 08:06:16;;;;;;;3.97;1.50;;;21.40;96.50;;;;;;4718599;30;20067;-89
2021/06/05 08:08:44;;;;;;;1.88;1.77;;;21.00;96.80;;;;;;4719764;30;20052;-82
2021/06/05 08:11:12;;;;;;;1.67;1.33;;;21.10;98.50;;;;;;4748180;30;20056;-81
2021/06/05 08:13:42;;;;;;;2.93;2.53;;;21.20;97.50;;;;;;4747372;30;20056;-82
2021/06/05 08:16:42;;;;;;;1.85;1.33;;;21.00;97.20;;;;;;4731660;30;20306;-83
2021/06/05 08:19:17;;;;;;;3.17;1.95;;;20.90;98.00;;;;;;4714682;30;20056;-82
2021/06/05 08:21:46;;;;;;;1.63;1.40;;;20.90;98.30;;;;;;4730843;30;20093;-83
2021/06/05 08:24:17;;;;;;;1.90;1.73;;;21.00;98.40;;;;;;4746120;30;20071;-82
2021/06/05 08:27:18;;;;;;;10.88;2.80;;;21.00;99.50;;;;;;4673994;30;20056;-83
2021/06/05 08:29:46;;;;;;;3.92;2.10;;;21.00;98.50;;;;;;4749896;30;20052;-92
2021/06/05 08:32:21;;;;;;;2.17;2.00;;;21.00;97.80;;;;;;4723536;30;20071;-92
2021/06/05 08:34:52;;;;;;;2.72;2.22;;;21.00;98.30;;;;;;4728071;30;20072;-87
2021/06/05 08:37:20;;;;;;;2.47;2.25;;;21.10;97.30;;;;;;4735555;30;20515;-85
2021/06/05 08:39:49;;;;;;;2.88;2.20;;;21.00;97.30;;;;;;4750684;30;20410;-76
2021/06/05 08:42:22;;;;;;;2.35;1.83;;;21.20;96.70;;;;;;4749763;30;20052;-76
2021/06/05 08:44:51;;;;;;;2.25;2.10;;;21.40;96.90;;;;;;4749623;30;20101;-77
2021/06/05 08:47:32;;;;;;;2.63;2.42;;;21.50;97.80;;;;;;4750515;30;20067;-84
2021/06/05 08:50:03;;;;;;;6.85;2.13;;;21.50;96.70;;;;;;4749423;30;20052;-84
2021/06/05 08:52:32;;;;;;;4.07;2.65;;;21.40;97.20;;;;;;4750256;30;20068;-78
2021/06/05 08:55:06;;;;;;;2.63;2.42;;;21.40;98.00;;;;;;4749516;30;20047;-80
2021/06/05 08:57:53;;;;;;;2.38;2.15;;;21.20;97.70;;;;;;4723790;30;20061;-84
2021/06/05 09:00:32;;;;;;;1.80;1.70;;;21.20;98.50;;;;;;4737084;30;20075;-83
2021/06/05 09:03:08;;;;;;;3.53;2.05;;;21.40;97.80;;;;;;4751473;30;20048;-82
2021/06/05 09:05:53;;;;;;;5.47;2.10;;;21.30;98.30;;;;;;4736332;30;20056;-83
2021/06/05 09:08:22;;;;;;;2.25;1.80;;;21.20;97.20;;;;;;4752840;30;20060;-83
2021/06/05 09:11:09;;;;;;;2.03;1.77;;;21.20;97.40;;;;;;4721131;30;20060;-80
2021/06/05 09:13:38;;;;;;;1.75;1.65;;;21.10;96.60;;;;;;4721205;30;20513;-81
2021/06/05 09:16:23;;;;;;;3.75;1.70;;;20.90;98.00;;;;;;4721417;30;20063;-82
2021/06/05 09:19:27;;;;;;;2.15;1.95;;;20.80;96.50;;;;;;4735459;30;20059;-85
2021/06/05 09:22:07;;;;;;;2.33;1.90;;;21.00;97.80;;;;;;4723711;30;20060;-79
2021/06/05 09:24:44;;;;;;;1.83;1.63;;;21.10;97.00;;;;;;4762110;30;20052;-82
2021/06/05 09:27:17;;;;;;;2.72;2.53;;;21.20;96.20;;;;;;4735198;30;20395;-84
2021/06/05 09:30:02;;;;;;;2.72;2.00;;;21.20;96.70;;;;;;4769000;30;20051;-79
2021/06/05 09:32:53;;;;;;;3.10;2.35;;;21.30;96.70;;;;;;4783324;30;20060;-81
2021/06/05 09:35:27;;;;;;;4.38;1.58;;;21.30;95.70;;;;;;4753519;30;20589;-79
2021/06/05 09:38:11;;;;;;;6.57;2.03;;;21.30;96.60;;;;;;4751575;30;20048;-77
2021/06/05 09:40:53;;;;;;;2.25;2.05;;;21.30;94.70;;;;;;4735560;30;20075;-77
2021/06/05 09:43:24;;;;;;;1.30;1.20;;;21.50;96.70;;;;;;4750981;30;20542;-78
2021/06/05 09:46:21;;;;;;;2.50;1.50;;;21.60;95.50;;;;;;4751602;30;20431;-79
2021/06/05 09:48:59;;;;;;;2.63;1.15;;;21.50;95.30;;;;;;4750849;30;20060;-79
2021/06/05 09:51:38;;;;;;;1.75;1.48;;;21.70;96.40;;;;;;4766950;30;20098;-79
2021/06/05 09:54:26;;;;;;;1.90;1.58;;;21.90;96.70;;;;;;4768374;30;20058;-78
2021/06/05 09:57:18;;;;;;;1.20;1.15;;;21.80;94.80;;;;;;4768856;30;20056;-80
2021/06/05 10:00:07;;;;;;;3.45;3.15;;;21.50;96.40;;;;;;4768529;30;20063;-78
2021/06/05 10:03:05;;;;;;;1.65;1.30;;;21.60;96.50;;;;;;4768012;30;20058;-85
2021/06/05 10:05:56;;;;;;;3.05;1.63;;;21.90;95.50;;;;;;4755505;30;20136;-88
2021/06/05 10:09:05;;;;;;;1.95;1.63;;;21.90;95.10;;;;;;4768643;30;20063;-86
2021/06/05 10:11:53;;;;;;;1.60;1.50;;;21.90;94.60;;;;;;4699478;30;20409;-82
2021/06/05 10:14:51;;;;;;;1.35;1.00;;;21.90;94.90;;;;;;4705855;30;20071;-83
2021/06/05 10:17:56;;;;;;;3.42;2.00;;;21.90;95.10;;;;;;4738696;30;20067;-85
2021/06/05 10:21:08;;;;;;;2.85;1.98;;;22.00;94.00;;;;;;4673479;30;20077;-81
2021/06/05 10:24:16;;;;;;;1.75;1.63;;;21.90;92.80;;;;;;4679251;30;20089;-83
2021/06/05 10:26:50;;;;;;;2.42;1.63;;;21.90;95.00;;;;;;4664090;30;20058;-86
2021/06/05 10:33:55;;;;;;;9.35;2.92;;;22.10;93.80;;;;;;4744346;30;20052;-88
2021/06/05 10:37:18;;;;;;;4.87;2.43;;;22.00;95.00;;;;;;4735105;30;20066;-83
2021/06/05 10:39:51;;;;;;;3.22;1.58;;;22.00;95.90;;;;;;4738210;30;20055;-83
2021/06/05 10:42:46;;;;;;;1.45;1.35;;;22.10;95.50;;;;;;4738095;30;20423;-83
2021/06/05 10:45:56;;;;;;;1.55;1.40;;;21.60;94.50;;;;;;4758556;30;20055;-86
2021/06/05 10:49:30;;;;;;;2.08;1.85;;;21.50;94.70;;;;;;4736406;30;20059;-82
2021/06/05 10:52:55;;;;;;;5.82;1.85;;;21.70;93.10;;;;;;4667870;30;20068;-83
2021/06/05 10:55:48;;;;;;;2.03;1.70;;;22.10;94.10;;;;;;4663313;30;20084;-80
2021/06/05 10:58:45;;;;;;;2.47;1.83;;;22.50;93.60;;;;;;4734500;30;20055;-83
2021/06/05 11:01:38;;;;;;;4.25;2.05;;;22.50;94.30;;;;;;4736728;30;20056;-88
2021/06/05 11:04:28;;;;;;;1.70;1.33;;;22.80;93.50;;;;;;4720421;30;20063;-85
2021/06/05 11:07:02;;;;;;;2.90;2.60;;;22.90;92.40;;;;;;4705284;30;20055;-84
2021/06/05 11:09:31;;;;;;;2.30;1.42;;;22.50;92.30;;;;;;4734143;30;20045;-85
2021/06/05 11:12:23;;;;;;;1.75;1.65;;;22.10;92.40;;;;;;4720410;30;20078;-85
2021/06/05 11:14:55;;;;;;;1.80;1.55;;;21.90;93.10;;;;;;4724976;30;20047;-87
2021/06/05 11:17:30;;;;;;;3.08;1.63;;;22.10;96.50;;;;;;4767677;30;20521;-80
2021/06/05 11:20:05;;;;;;;1.42;1.33;;;22.40;93.40;;;;;;4766164;30;20067;-81
2021/06/05 11:22:49;;;;;;;1.48;1.33;;;22.60;95.40;;;;;;4767601;30;20426;-79
2021/06/05 11:25:17;;;;;;;1.33;1.23;;;22.70;94.40;;;;;;4765537;30;20055;-81
2021/06/05 11:27:48;;;;;;;3.92;2.20;;;22.80;94.60;;;;;;4765966;30;20062;-81
2021/06/05 11:30:22;;;;;;;1.23;1.10;;;22.50;93.50;;;;;;4751483;30;20040;-78
2021/06/05 11:33:02;;;;;;;5.07;1.23;;;22.50;92.80;;;;;;4751901;30;20063;-80
2021/06/05 11:35:36;;;;;;;1.45;1.35;;;22.20;93.10;;;;;;4751680;30;20055;-81
2021/06/05 11:38:10;;;;;;;7.60;1.70;;;22.40;93.20;;;;;;4750024;30;20052;-81
2021/06/05 11:41:06;;;;;;;1.58;1.08;;;22.60;93.00;;;;;;4733279;30;20056;-82
2021/06/05 11:43:34;;;;;;;2.78;0.80;;;22.40;92.60;;;;;;4734709;30;20060;-79
2021/06/05 11:46:22;;;;;;;4.03;2.20;;;22.40;93.10;;;;;;4763942;30;20051;-79
2021/06/05 11:49:04;;;;;;;5.45;1.33;;;22.50;90.40;;;;;;4766800;30;20525;-81
2021/06/05 11:51:43;;;;;;;1.90;1.77;;;22.50;92.50;;;;;;4752304;30;20061;-80
2021/06/05 11:54:12;;;;;;;5.78;0.80;;;22.70;91.00;;;;;;4748702;30;20048;-81
2021/06/05 11:56:57;;;;;;;0.50;0.50;;;22.70;88.70;;;;;;4749508;30;20451;-79
2021/06/05 11:59:34;;;;;;;1.30;0.75;;;22.70;92.20;;;;;;4749994;30;20513;-79
2021/06/05 12:02:28;;;;;;;2.40;1.17;;;22.80;87.60;;;;;;4753821;30;20048;-80
2021/06/05 12:05:03;;;;;;;1.15;0.68;;;22.80;87.00;;;;;;4736538;30;20056;-79
2021/06/05 12:07:35;;;;;;;0.88;0.70;;;22.70;86.50;;;;;;4738203;30;20067;-81
2021/06/05 12:10:05;;;;;;;3.72;1.02;;;22.50;89.40;;;;;;4738147;30;20056;-89
2021/06/05 12:12:47;;;;;;;1.83;0.75;;;22.30;86.90;;;;;;4723671;30;20068;-88
2021/06/05 12:15:37;;;;;;;0.80;0.45;;;22.40;89.00;;;;;;4708244;30;20063;-87
2021/06/05 12:18:27;;;;;;;1.42;0.85;;;22.50;91.00;;;;;;4753107;30;20045;-87
2021/06/05 12:21:18;;;;;;;0.57;0.57;;;22.60;90.60;;;;;;4737691;30;20070;-80
2021/06/05 12:23:46;;;;;;;3.03;1.77;;;22.50;91.90;;;;;;4737769;30;20498;-89
2021/06/05 12:26:18;;;;;;;;;;;22.40;90.50;;;;;;4737879;30;20059;-86
2021/06/05 12:29:13;;;;;;;0.88;0.70;;;22.30;91.10;;;;;;4729527;30;19930;-83
2021/06/05 12:31:43;;;;;;;2.15;0.88;;;22.20;91.60;;;;;;4751979;30;20064;-81
2021/06/05 12:34:34;;;;;;;2.22;1.42;;;22.20;91.70;;;;;;4721426;30;20740;-82
2021/06/05 12:37:16;;;;;;;0.73;0.73;;;22.20;91.00;;;;;;4763549;30;20048;-79
2021/06/05 12:39:53;;;;;;;0.98;0.70;;;22.20;92.60;;;;;;4770879;30;20490;-79
2021/06/05 12:42:34;;;;;;;2.30;1.15;;;22.00;92.10;;;;;;4769758;30;20054;-80
2021/06/05 12:45:08;;;;;;;2.78;0.85;;;21.90;93.00;;;;;;4762536;30;20051;-79
2021/06/05 12:47:39;;;;;;;2.15;1.40;;;22.00;92.30;;;;;;4753277;30;20060;-79
2021/06/05 12:50:12;;;;;;;1.48;1.20;;;22.10;93.80;;;;;;4751617;30;20048;-81
2021/06/05 12:52:46;;;;;;;2.35;0.98;;;22.10;93.00;;;;;;4749792;30;20111;-81
2021/06/05 12:55:28;;;;;;;1.95;1.38;;;22.10;92.70;;;;;;4733502;30;20064;-86
2021/06/05 12:58:01;;;;;;;1.08;0.70;;;22.20;91.30;;;;;;4734597;30;20044;-88
2021/06/05 13:00:29;;;;;;;1.27;1.17;;;22.20;93.30;;;;;;4719974;30;20056;-86
2021/06/05 13:03:19;;;;;;;1.33;0.80;;;22.10;91.20;;;;;;4734672;30;20084;-84
2021/06/05 13:06:01;;;;;;;1.88;0.85;;;22.00;93.10;;;;;;4734902;30;20074;-85
2021/06/05 13:08:38;;;;;;;2.80;0.70;;;21.80;93.90;;;;;;4733701;30;20372;-86
2021/06/05 13:11:10;;;;;;;1.65;0.85;;;21.80;94.40;;;;;;4733812;30;20063;-83
2021/06/05 13:14:16;;;;;;;1.52;1.27;;;21.70;92.40;;;;;;4734451;30;20045;-91
2021/06/05 13:16:45;;;;;;;2.63;0.70;;;21.60;93.80;;;;;;4696979;30;20056;-86
2021/06/05 13:19:21;;;;;;;0.52;0.52;;;21.40;93.60;;;;;;4747825;30;20060;-83
2021/06/05 13:22:23;;;;;;;3.13;1.42;;;21.40;93.70;;;;;;4732684;30;20052;-84
2021/06/05 13:25:12;;;;;;;1.17;0.90;;;21.40;93.90;;;;;;4701737;30;20060;-82
2021/06/05 13:28:01;;;;;;;17.63;2.08;;;21.50;94.30;;;;;;4704649;30;20073;-79
2021/06/05 13:30:56;;;;;;;1.10;0.82;;;21.30;93.30;;;;;;4732849;30;20044;-79
2021/06/05 13:33:27;;;;;;;0.55;0.52;;;21.30;93.70;;;;;;4732193;30;20056;-81
2021/06/05 13:35:59;;;;;;;15.45;1.35;;;21.30;94.20;;;;;;4737170;30;20048;-81
2021/06/05 13:38:29;;;;;;;3.85;1.80;;;21.30;94.00;;;;;;4735902;30;20424;-81
2021/06/05 13:40:59;;;;;;;0.75;0.68;;;21.30;93.40;;;;;;4734854;30;20056;-81
2021/06/05 13:43:28;;;;;;;0.60;0.60;;;21.30;93.30;;;;;;4751622;30;20048;-81
2021/06/05 13:46:02;;;;;;;2.15;0.70;;;21.30;94.10;;;;;;4738624;30;20049;-81
2021/06/05 13:48:29;;;;;;;4.70;0.68;;;21.30;94.30;;;;;;4734398;30;20060;-88
2021/06/05 13:50:57;;;;;;;0.60;0.60;;;21.30;93.90;;;;;;4739538;30;20563;-84
2021/06/05 13:53:33;;;;;;;3.92;1.75;;;21.30;93.50;;;;;;4741841;30;20495;-89
2021/06/05 13:56:05;;;;;;;1.27;0.73;;;21.30;93.50;;;;;;4736554;30;20067;-86
2021/06/05 13:58:32;;;;;;;2.03;0.65;;;21.30;93.70;;;;;;4721058;30;20052;-85
2021/06/05 14:01:00;;;;;;;0.73;0.65;;;21.30;93.80;;;;;;4735769;30;20408;-86
2021/06/05 14:03:28;;;;;;;0.55;0.55;;;21.30;94.50;;;;;;4734734;30;20067;-87
2021/06/05 14:05:57;;;;;;;5.18;1.15;;;21.30;94.10;;;;;;4735545;30;20056;-79
2021/06/05 14:08:25;;;;;;;0.70;0.70;;;21.30;93.20;;;;;;4751982;30;20068;-79
2021/06/05 14:10:53;;;;;;;1.80;0.90;;;21.30;93.70;;;;;;4751327;30;20059;-80
2021/06/05 14:13:23;;;;;;;1.95;1.60;;;21.20;94.10;;;;;;4751097;30;20056;-81
2021/06/05 14:15:54;;;;;;;4.65;0.82;;;21.20;94.20;;;;;;4764019;30;20070;-79
2021/06/05 14:18:26;;;;;;;1.27;0.80;;;21.30;94.00;;;;;;4768299;30;20822;-82
2021/06/05 14:20:57;;;;;;;1.13;1.02;;;21.50;94.40;;;;;;4768841;30;20406;-79
2021/06/05 14:23:26;;;;;;;1.23;0.60;;;21.70;92.70;;;;;;4768511;30;20056;-82
2021/06/05 14:25:54;;;;;;;0.75;0.75;;;22.10;94.40;;;;;;4769299;30;20059;-88
2021/06/05 14:28:25;;;;;;;1.35;1.13;;;22.30;91.30;;;;;;4750144;30;20060;-82
2021/06/05 14:30:55;;;;;;;;;;;22.20;91.80;;;;;;4750928;30;20067;-86
2021/06/05 14:33:24;;;;;;;1.02;0.73;;;22.00;92.10;;;;;;4734510;30;19937;-85
2021/06/05 14:35:54;;;;;;;1.10;0.90;;;21.80;93.00;;;;;;4738262;30;20494;-87
2021/06/05 14:38:26;;;;;;;1.02;0.95;;;21.60;91.60;;;;;;4769112;30;20078;-83
2021/06/05 14:40:55;;;;;;;1.10;0.70;;;21.40;92.60;;;;;;4752554;30;20048;-84
2021/06/05 14:43:25;;;;;;;1.25;1.10;;;21.60;92.30;;;;;;4752742;30;20557;-87
2021/06/05 14:45:57;;;;;;;2.88;1.02;;;21.60;91.70;;;;;;4747007;30;20052;-80
2021/06/05 14:48:28;;;;;;;0.98;0.93;;;21.90;92.20;;;;;;4750824;30;20059;-79
2021/06/05 14:50:57;;;;;;;3.67;0.80;;;22.30;92.50;;;;;;4750632;30;20048;-80
2021/06/05 14:53:28;;;;;;;1.63;1.00;;;22.60;92.90;;;;;;4750436;30;20067;-80
2021/06/05 14:55:58;;;;;;;0.90;0.90;;;22.60;92.40;;;;;;4735511;30;20059;-79
2021/06/05 14:58:26;;;;;;;0.70;0.70;;;22.40;91.00;;;;;;4750263;30;20471;-79
2021/06/05 15:00:54;;;;;;;1.02;1.02;;;22.60;91.70;;;;;;4750338;30;20099;-81
2021/06/05 15:03:23;;;;;;;3.40;1.13;;;22.50;90.90;;;;;;4750277;30;20090;-81
2021/06/05 15:05:53;;;;;;;0.70;0.70;;;22.50;92.50;;;;;;4750673;30;20055;-80
2021/06/05 15:08:21;;;;;;;1.80;1.17;;;22.50;90.00;;;;;;4750687;30;20060;-81
2021/06/05 15:10:50;;;;;;;1.13;0.80;;;22.50;91.10;;;;;;4748868;30;20056;-84
2021/06/05 15:13:18;;;;;;;1.40;0.82;;;22.60;91.10;;;;;;4750052;30;20067;-81
2021/06/05 15:15:45;;;;;;;0.85;0.70;;;22.50;92.30;;;;;;4762789;30;20395;-83
2021/06/05 15:18:14;;;;;;;1.00;1.00;;;22.30;92.10;;;;;;4755040;30;20056;-80
2021/06/05 15:20:43;;;;;;;0.60;0.60;;;22.10;91.30;;;;;;4749536;30;20056;-81
2021/06/05 15:23:13;;;;;;;1.35;1.15;;;22.00;92.30;;;;;;4749757;30;20063;-79
2021/06/05 15:25:44;;;;;;;4.55;1.05;;;21.90;91.30;;;;;;4749978;30;20063;-82
2021/06/05 15:28:14;;;;;;;0.68;0.65;;;21.70;91.90;;;;;;4733592;30;20063;-82
2021/06/05 15:30:44;;;;;;;1.15;1.00;;;21.60;91.90;;;;;;4733958;30;20044;-80
2021/06/05 15:33:14;;;;;;;3.55;1.23;;;21.50;91.20;;;;;;4732540;30;20048;-80
2021/06/05 15:35:44;;;;;;;0.85;0.68;;;21.30;91.20;;;;;;4751105;30;20726;-79
2021/06/05 15:38:14;;;;;;;0.63;0.60;;;21.20;92.20;;;;;;4767745;30;20047;-80
2021/06/05 15:40:43;;;;;;;0.88;0.68;;;21.20;91.80;;;;;;4766108;30;20070;-81
2021/06/05 15:43:14;;;;;;;1.30;1.20;;;21.20;91.90;;;;;;4752079;30;20051;-85
2021/06/05 15:45:46;;;;;;;2.22;0.63;;;21.20;91.10;;;;;;4740303;30;20044;-84
2021/06/05 15:48:20;;;;;;;1.58;0.80;;;21.20;91.50;;;;;;4749492;30;20278;-84
2021/06/05 15:50:49;;;;;;;0.88;0.75;;;21.20;91.40;;;;;;4740033;30;20055;-78
2021/06/05 15:53:21;;;;;;;1.15;1.05;;;21.30;91.70;;;;;;4748581;30;20048;-83
2021/06/05 15:55:50;;;;;;;1.38;0.85;;;21.10;92.80;;;;;;4720161;30;20059;-87
2021/06/05 15:58:18;;;;;;;1.40;1.08;;;21.00;93.50;;;;;;4733535;30;20052;-86
2021/06/05 16:00:47;;;;;;;1.15;0.80;;;20.80;93.20;;;;;;4734238;30;20052;-84
2021/06/05 16:03:17;;;;;;;1.85;1.33;;;20.70;93.70;;;;;;4719260;30;20107;-85
2021/06/05 16:05:45;;;;;;;1.70;0.80;;;20.70;93.50;;;;;;4749936;30;20063;-80
2021/06/05 16:08:13;;;;;;;4.15;1.02;;;20.60;93.80;;;;;;4745923;30;20060;-85
2021/06/05 16:10:41;;;;;;;3.03;0.90;;;20.60;93.60;;;;;;4767189;30;20066;-86